createdAt,value
2022-10-19T00:02:08.277Z,8.34
2022-10-19T00:04:35.174Z,8.07
2022-10-19T00:07:01.992Z,8.06
2022-10-19T00:09:29.490Z,8.33
2022-10-19T00:11:56.328Z,8.43
2022-10-19T00:14:24.238Z,8.45
2022-10-19T00:16:53.223Z,8.63
2022-10-19T00:19:23.830Z,8.64
2022-10-19T00:24:18.075Z,8.72
2022-10-19T00:26:44.919Z,8.71
2022-10-19T00:29:13.769Z,8.74
2022-10-19T00:31:41.184Z,8.80
2022-10-19T00:34:08.213Z,8.76
2022-10-19T00:36:37.991Z,8.72
2022-10-19T00:39:07.664Z,8.55
2022-10-19T00:41:37.225Z,8.71
2022-10-19T00:44:27.110Z,8.76
2022-10-19T00:46:54.331Z,8.80
2022-10-19T00:49:24.967Z,8.76
2022-10-19T00:51:55.287Z,8.79
2022-10-19T00:54:23.912Z,8.35
2022-10-19T00:56:53.568Z,8.30
2022-10-19T00:59:25.278Z,8.28
2022-10-19T01:01:53.435Z,8.42
2022-10-19T01:04:22.273Z,8.53
2022-10-19T01:09:21.450Z,8.67
2022-10-19T01:12:12.888Z,8.63
2022-10-19T01:15:16.771Z,8.46
2022-10-19T01:18:05.313Z,8.51
2022-10-19T01:21:15.642Z,8.60
2022-10-19T01:24:03.995Z,8.60
2022-10-19T01:26:51.751Z,8.49
2022-10-19T01:29:40.615Z,8.21
2022-10-19T01:32:21.301Z,8.11
2022-10-19T01:35:09.685Z,7.99
2022-10-19T01:38:04.002Z,8.23
2022-10-19T01:40:45.108Z,8.28
2022-10-19T01:43:22.263Z,8.39
2022-10-19T01:46:11.583Z,8.41
2022-10-19T01:48:45.011Z,8.38
2022-10-19T01:51:23.343Z,8.39
2022-10-19T01:53:55.650Z,8.20
2022-10-19T01:56:26.702Z,8.22
2022-10-19T01:58:56.772Z,8.18
2022-10-19T02:01:25.766Z,8.22
2022-10-19T02:03:54.436Z,8.32
2022-10-19T02:06:21.788Z,8.30
2022-10-19T02:08:52.165Z,8.09
2022-10-19T02:11:21.958Z,8.06
2022-10-19T02:14:01.953Z,8.10
2022-10-19T02:16:41.135Z,7.91
2022-10-19T02:19:10.084Z,7.89
2022-10-19T02:21:36.941Z,7.70
2022-10-19T02:24:04.099Z,7.83
2022-10-19T02:26:31.084Z,7.76
2022-10-19T02:28:58.454Z,7.80
2022-10-19T02:31:26.291Z,7.74
2022-10-19T02:33:54.111Z,7.67
2022-10-19T02:36:21.142Z,7.72
2022-10-19T02:38:48.351Z,7.75
2022-10-19T02:41:17.975Z,7.78
2022-10-19T02:44:07.016Z,7.70
2022-10-19T02:46:46.318Z,7.64
2022-10-19T02:49:13.764Z,7.53
2022-10-19T02:51:56.823Z,7.57
2022-10-19T02:54:24.502Z,7.60
2022-10-19T02:56:51.335Z,7.52
2022-10-19T02:59:18.673Z,7.43
2022-10-19T03:01:45.594Z,7.25
2022-10-19T03:04:12.501Z,7.13
2022-10-19T03:06:39.323Z,6.94
2022-10-19T03:09:06.291Z,7.13
2022-10-19T03:11:33.269Z,7.39
2022-10-19T03:14:00.071Z,7.36
2022-10-19T03:16:26.917Z,7.35
2022-10-19T03:18:54.412Z,7.29
2022-10-19T03:21:21.293Z,7.44
2022-10-19T03:23:48.193Z,7.52
2022-10-19T03:26:16.674Z,7.58
2022-10-19T03:28:43.604Z,7.53
2022-10-19T03:31:10.508Z,7.52
2022-10-19T03:33:37.629Z,7.60
2022-10-19T03:36:21.951Z,7.69
2022-10-19T03:38:53.057Z,7.57
2022-10-19T03:41:21.364Z,7.54
2022-10-19T03:43:48.736Z,7.42
2022-10-19T03:46:16.004Z,7.60
2022-10-19T03:48:46.073Z,7.46
2022-10-19T03:51:25.131Z,7.48
2022-10-19T03:53:56.235Z,7.40
2022-10-19T03:56:25.831Z,7.39
2022-10-19T03:58:54.814Z,7.20
2022-10-19T04:01:33.584Z,6.89
2022-10-19T04:04:03.756Z,6.86
2022-10-19T04:06:33.166Z,6.44
2022-10-19T04:09:00.002Z,6.60
2022-10-19T04:11:29.282Z,6.57
2022-10-19T04:13:58.133Z,6.51
2022-10-19T04:16:26.663Z,6.63
2022-10-19T04:18:54.002Z,6.79
2022-10-19T04:21:27.476Z,6.84
2022-10-19T04:23:59.858Z,6.88
2022-10-19T04:26:27.232Z,6.92
2022-10-19T04:28:54.357Z,7.01
2022-10-19T04:31:21.263Z,7.13
2022-10-19T04:33:48.089Z,7.11
2022-10-19T04:36:15.041Z,7.03
2022-10-19T04:38:41.898Z,6.96
2022-10-19T04:41:11.970Z,6.90
2022-10-19T04:43:39.244Z,6.84
2022-10-19T04:46:08.558Z,6.80
2022-10-19T04:48:36.954Z,7.02
2022-10-19T04:51:04.980Z,6.87
2022-10-19T04:53:33.435Z,7.02
2022-10-19T04:56:09.371Z,7.18
2022-10-19T04:58:36.230Z,7.01
2022-10-19T05:01:22.806Z,7.14
2022-10-19T05:03:54.312Z,7.38
2022-10-19T05:06:21.143Z,7.33
2022-10-19T05:08:50.357Z,7.49
2022-10-19T05:11:18.094Z,7.75
2022-10-19T05:13:45.803Z,8.10
2022-10-19T05:16:16.185Z,8.52
2022-10-19T05:18:43.224Z,8.76
2022-10-19T05:21:12.421Z,9.00
2022-10-19T05:23:40.146Z,8.98
2022-10-19T05:26:09.399Z,8.79
2022-10-19T05:28:37.232Z,8.71
2022-10-19T05:31:15.544Z,9.57
2022-10-19T05:33:43.199Z,10.16
2022-10-19T05:36:21.433Z,10.86
2022-10-19T05:38:50.466Z,11.54
2022-10-19T05:41:17.749Z,11.83
2022-10-19T05:43:47.155Z,12.05
2022-10-19T05:46:18.074Z,12.49
2022-10-19T05:48:45.867Z,13.06
2022-10-19T05:51:15.582Z,13.20
2022-10-19T05:53:42.946Z,13.31
2022-10-19T05:56:14.474Z,14.28
2022-10-19T05:58:41.755Z,14.25
2022-10-19T06:01:09.636Z,14.71
2022-10-19T06:03:36.899Z,15.03
2022-10-19T06:06:06.078Z,15.38
2022-10-19T06:08:33.575Z,15.72
2022-10-19T06:11:07.393Z,16.17
2022-10-19T06:13:34.602Z,16.96
2022-10-19T06:16:01.452Z,16.99
2022-10-19T06:18:28.245Z,17.31
2022-10-19T06:20:55.169Z,17.73
2022-10-19T06:23:22.047Z,18.44
2022-10-19T06:25:48.848Z,18.14
2022-10-19T06:28:15.739Z,19.16
2022-10-19T06:30:42.675Z,19.77
2022-10-19T06:33:09.551Z,20.17
2022-10-19T06:35:36.533Z,20.00
2022-10-19T06:38:03.323Z,20.25
2022-10-19T06:40:30.291Z,20.28
2022-10-19T06:42:57.297Z,20.40
2022-10-19T06:45:24.204Z,21.27
2022-10-19T06:47:51.065Z,21.23
2022-10-19T06:50:18.146Z,21.43
2022-10-19T06:52:46.223Z,21.98
2022-10-19T06:55:13.272Z,21.39
2022-10-19T06:57:40.124Z,21.44
2022-10-19T07:00:08.314Z,21.20
2022-10-19T07:02:35.192Z,21.42
2022-10-19T07:05:07.366Z,21.30
2022-10-19T07:07:34.975Z,20.96
2022-10-19T07:10:02.533Z,21.54
2022-10-19T07:12:29.502Z,21.24
2022-10-19T07:14:56.591Z,22.11
2022-10-19T07:17:23.409Z,21.72
2022-10-19T07:19:50.439Z,22.29
2022-10-19T07:22:22.156Z,22.89
2022-10-19T07:24:52.426Z,22.70
2022-10-19T07:27:19.431Z,23.05
2022-10-19T07:29:46.464Z,23.08
2022-10-19T07:32:13.324Z,23.16
2022-10-19T07:34:40.227Z,22.51
2022-10-19T07:37:07.215Z,22.48
2022-10-19T07:39:34.166Z,22.65
2022-10-19T07:42:01.214Z,22.87
2022-10-19T07:44:28.204Z,23.22
2022-10-19T07:46:55.156Z,22.54
2022-10-19T07:49:24.461Z,22.92
2022-10-19T07:51:54.252Z,23.16
2022-10-19T07:54:21.743Z,23.67
2022-10-19T07:56:48.564Z,22.54
2022-10-19T07:59:17.370Z,23.32
2022-10-19T08:01:45.293Z,23.48
2022-10-19T08:06:58.927Z,23.26
2022-10-19T08:09:51.585Z,23.59
2022-10-19T08:12:15.367Z,23.67
2022-10-19T08:14:42.646Z,22.29
2022-10-19T08:17:12.105Z,22.08
2022-10-19T08:19:43.613Z,22.42
2022-10-19T08:22:10.991Z,22.37
2022-10-19T08:24:38.114Z,22.49
2022-10-19T08:27:05.066Z,22.75
2022-10-19T08:29:32.209Z,22.78
2022-10-19T08:31:59.462Z,22.76
2022-10-19T08:34:26.890Z,22.67
2022-10-19T08:36:53.939Z,22.64
2022-10-19T08:39:20.781Z,23.12
2022-10-19T08:41:58.345Z,24.16
2022-10-19T08:44:31.104Z,23.62
2022-10-19T08:47:07.721Z,24.15
2022-10-19T08:49:35.197Z,24.35
2022-10-19T08:52:07.487Z,24.34
2022-10-19T08:54:51.410Z,23.78
2022-10-19T08:57:48.608Z,24.17
2022-10-19T09:00:41.812Z,24.21
2022-10-19T09:03:37.625Z,24.52
2022-10-19T09:06:24.624Z,24.80
2022-10-19T09:08:53.488Z,24.86
2022-10-19T09:11:27.431Z,24.65
2022-10-19T09:14:07.510Z,24.85
2022-10-19T09:16:35.388Z,24.81
2022-10-19T09:19:04.220Z,24.91
2022-10-19T09:22:08.146Z,24.91
2022-10-19T09:24:52.149Z,24.68
2022-10-19T09:27:30.398Z,24.86
2022-10-19T09:29:59.367Z,24.37
2022-10-19T09:32:32.361Z,24.76
2022-10-19T09:35:07.386Z,24.37
2022-10-19T09:37:43.638Z,24.32
2022-10-19T09:40:18.639Z,24.65
2022-10-19T09:42:45.628Z,24.69
2022-10-19T09:45:50.135Z,24.85
2022-10-19T09:48:38.338Z,24.78
2022-10-19T09:51:13.348Z,24.59
2022-10-19T09:53:51.098Z,23.84
2022-10-19T09:56:26.871Z,24.28
2022-10-19T09:58:58.905Z,24.42
2022-10-19T10:01:41.448Z,24.23
2022-10-19T10:04:18.021Z,24.35
2022-10-19T10:06:48.340Z,24.65
2022-10-19T10:09:22.925Z,24.39
2022-10-19T10:11:51.287Z,24.05
2022-10-19T10:14:27.258Z,24.21
2022-10-19T10:17:02.407Z,24.11
2022-10-19T10:19:31.021Z,24.32
2022-10-19T10:21:59.299Z,24.16
2022-10-19T10:24:31.892Z,24.22
2022-10-19T10:27:01.597Z,24.08
2022-10-19T10:29:34.514Z,23.65
2022-10-19T10:32:06.721Z,23.74
2022-10-19T10:34:46.071Z,23.84
2022-10-19T10:37:43.640Z,24.04
2022-10-19T10:40:36.497Z,24.04
2022-10-19T10:43:15.825Z,24.02
2022-10-19T10:45:48.996Z,23.74
2022-10-19T10:48:21.778Z,23.91
2022-10-19T10:50:51.589Z,23.69
2022-10-19T10:53:44.866Z,23.83
2022-10-19T10:56:33.567Z,23.65
2022-10-19T10:59:07.860Z,23.54
2022-10-19T11:01:44.255Z,23.76
2022-10-19T11:04:20.197Z,23.85
2022-10-19T11:07:01.421Z,23.14
2022-10-19T11:09:44.679Z,23.23
2022-10-19T11:12:16.489Z,23.70
2022-10-19T11:14:51.422Z,23.24
2022-10-19T11:17:25.083Z,23.53
2022-10-19T11:19:52.053Z,23.68
2022-10-19T11:22:44.267Z,23.50
2022-10-19T11:25:32.778Z,23.75
2022-10-19T11:28:18.786Z,23.63
2022-10-19T11:31:04.258Z,23.72
2022-10-19T11:33:52.596Z,23.18
2022-10-19T11:36:53.998Z,23.17
2022-10-19T11:40:03.648Z,23.24
2022-10-19T11:42:44.836Z,23.19
2022-10-19T11:45:51.228Z,23.19
2022-10-19T11:48:23.654Z,23.14
2022-10-19T11:51:21.090Z,23.08
2022-10-19T11:54:26.217Z,23.05
2022-10-19T11:57:04.063Z,22.96
2022-10-19T12:00:03.572Z,22.87
2022-10-19T12:03:26.690Z,22.65
2022-10-19T12:06:18.187Z,22.43
2022-10-19T12:08:52.519Z,22.56
2022-10-19T12:11:31.257Z,22.64
2022-10-19T12:14:03.938Z,22.60
2022-10-19T12:16:42.327Z,22.73
2022-10-19T12:19:18.511Z,22.58
2022-10-19T12:21:46.628Z,22.62
2022-10-19T12:24:20.628Z,22.08
2022-10-19T12:26:48.264Z,22.56
2022-10-19T12:29:19.875Z,22.51
2022-10-19T12:31:48.065Z,22.55
2022-10-19T12:34:31.557Z,22.26
2022-10-19T12:37:43.648Z,22.59
2022-10-19T12:40:40.488Z,22.40
2022-10-19T12:43:17.386Z,22.28
2022-10-19T12:46:13.486Z,22.48
2022-10-19T12:48:40.438Z,22.32
2022-10-19T12:51:17.248Z,22.25
2022-10-19T12:53:49.198Z,22.20
2022-10-19T12:56:20.847Z,22.17
2022-10-19T12:58:53.268Z,22.08
2022-10-19T13:01:27.459Z,21.90
2022-10-19T13:04:14.059Z,21.90
2022-10-19T13:07:11.024Z,21.94
2022-10-19T13:09:42.085Z,21.69
2022-10-19T13:12:21.516Z,21.74
2022-10-19T13:14:55.940Z,21.78
2022-10-19T13:17:34.829Z,21.69
2022-10-19T13:20:14.505Z,21.55
2022-10-19T13:22:50.338Z,21.47
2022-10-19T13:25:17.360Z,21.59
2022-10-19T13:27:45.767Z,21.09
2022-10-19T13:30:39.655Z,21.01
2022-10-19T13:33:24.994Z,20.56
2022-10-19T13:36:01.089Z,20.62
2022-10-19T13:38:39.168Z,20.61
2022-10-19T13:41:14.461Z,20.38
2022-10-19T13:43:44.000Z,20.44
2022-10-19T13:46:13.214Z,20.30
2022-10-19T13:49:02.322Z,20.34
2022-10-19T13:52:07.566Z,20.13
2022-10-19T13:54:43.517Z,20.13
2022-10-19T13:57:50.024Z,20.09
2022-10-19T14:00:23.258Z,20.03
2022-10-19T14:02:53.307Z,19.99
2022-10-19T14:05:57.428Z,19.94
2022-10-19T14:08:47.821Z,19.90
2022-10-19T14:11:19.196Z,19.88
2022-10-19T14:14:06.517Z,19.77
2022-10-19T14:16:33.638Z,19.72
2022-10-19T14:19:00.666Z,19.50
2022-10-19T14:21:37.080Z,19.40
2022-10-19T14:24:20.298Z,19.30
2022-10-19T14:26:47.618Z,19.29
2022-10-19T14:29:14.524Z,19.20
2022-10-19T14:31:42.297Z,19.20
2022-10-19T14:34:09.767Z,18.98
2022-10-19T14:36:45.326Z,18.92
2022-10-19T14:39:33.305Z,18.91
2022-10-19T14:42:05.926Z,18.90
2022-10-19T14:44:32.626Z,18.87
2022-10-19T14:47:02.141Z,18.84
2022-10-19T14:49:29.002Z,18.82
2022-10-19T14:52:03.329Z,18.79
2022-10-19T14:54:42.460Z,18.78
2022-10-19T14:57:34.923Z,18.76
2022-10-19T15:00:11.165Z,18.70
2022-10-19T15:02:44.423Z,18.64
2022-10-19T15:05:33.131Z,18.50
2022-10-19T15:08:09.019Z,18.56
2022-10-19T15:10:44.266Z,18.34
2022-10-19T15:13:24.089Z,18.31
2022-10-19T15:15:53.338Z,18.29
2022-10-19T15:18:43.839Z,18.31
2022-10-19T15:21:19.605Z,18.24
2022-10-19T15:23:49.557Z,18.25
2022-10-19T15:26:25.500Z,18.26
2022-10-19T15:28:53.429Z,18.17
2022-10-19T15:31:28.654Z,18.10
2022-10-19T15:34:01.066Z,17.99
2022-10-19T15:36:30.107Z,17.97
2022-10-19T15:39:18.293Z,17.88
2022-10-19T15:41:52.137Z,17.79
2022-10-19T15:44:43.546Z,17.72
2022-10-19T15:47:35.279Z,17.75
2022-10-19T15:50:02.675Z,17.75
2022-10-19T15:52:33.409Z,17.73
2022-10-19T15:55:01.291Z,17.61
2022-10-19T16:00:13.571Z,17.51
2022-10-19T16:02:40.920Z,17.58
2022-10-19T16:05:08.915Z,17.54
2022-10-19T16:07:42.259Z,17.49
2022-10-19T16:10:17.419Z,17.40
2022-10-19T16:12:44.491Z,17.35
2022-10-19T16:15:17.580Z,17.37
2022-10-19T16:17:47.924Z,17.43
2022-10-19T16:20:15.212Z,17.44
2022-10-19T16:22:42.560Z,17.39
2022-10-19T16:25:10.605Z,17.36
2022-10-19T16:27:37.916Z,17.32
2022-10-19T16:30:05.766Z,17.22
2022-10-19T16:32:32.843Z,17.15
2022-10-19T16:37:48.198Z,17.14
2022-10-19T16:42:50.590Z,17.24
2022-10-19T16:47:53.056Z,17.20
2022-10-19T16:53:05.398Z,17.27
2022-10-19T17:03:31.026Z,17.30
2022-10-19T17:05:57.810Z,17.25
2022-10-19T17:08:37.115Z,17.22
2022-10-19T17:11:28.459Z,17.27
2022-10-19T17:13:58.303Z,17.29
2022-10-19T17:21:42.657Z,17.25
2022-10-19T17:26:52.459Z,17.28
2022-10-19T17:29:21.580Z,17.32
2022-10-19T17:31:49.030Z,17.32
2022-10-19T17:34:16.994Z,17.27
2022-10-19T17:36:45.431Z,17.27
2022-10-19T17:39:17.972Z,17.27
2022-10-19T17:41:46.512Z,17.22
2022-10-19T17:44:13.757Z,17.23
2022-10-19T17:46:40.633Z,17.22
2022-10-19T17:49:07.590Z,17.25
2022-10-19T17:51:35.891Z,17.22
2022-10-19T17:54:08.550Z,17.22
2022-10-19T17:56:37.518Z,17.17
2022-10-19T17:59:07.590Z,17.16
2022-10-19T18:01:35.205Z,17.15
2022-10-19T18:04:02.073Z,17.06
2022-10-19T18:06:31.901Z,17.03
2022-10-19T18:09:00.448Z,16.98
2022-10-19T18:11:30.679Z,17.03
2022-10-19T18:14:00.584Z,17.02
2022-10-19T18:16:32.979Z,16.98
2022-10-19T18:19:01.668Z,16.92
2022-10-19T18:21:32.119Z,16.88
2022-10-19T18:24:00.965Z,16.85
2022-10-19T18:26:30.290Z,16.84
2022-10-19T18:28:58.181Z,16.83
2022-10-19T18:31:29.414Z,16.76
2022-10-19T18:33:59.373Z,16.75
2022-10-19T18:36:26.936Z,16.70
2022-10-19T18:38:56.022Z,16.67
2022-10-19T18:41:23.678Z,16.65
2022-10-19T18:43:56.041Z,16.51
2022-10-19T18:46:24.396Z,16.57
2022-10-19T18:48:51.560Z,16.50
2022-10-19T18:51:20.200Z,16.51
2022-10-19T18:53:47.612Z,16.50
2022-10-19T18:56:17.398Z,16.45
2022-10-19T18:58:44.629Z,16.42
2022-10-19T19:01:18.141Z,16.32
2022-10-19T19:03:47.180Z,16.31
2022-10-19T19:06:17.490Z,16.30
2022-10-19T19:11:19.740Z,16.39
2022-10-19T19:13:52.227Z,16.37
2022-10-19T19:16:19.866Z,16.34
2022-10-19T19:18:46.693Z,16.37
2022-10-19T19:21:16.934Z,16.38
2022-10-19T19:23:44.263Z,16.46
2022-10-19T19:26:13.070Z,16.45
2022-10-19T19:28:42.868Z,16.45
2022-10-19T19:31:15.954Z,16.45
2022-10-19T19:33:47.573Z,16.27
2022-10-19T19:36:16.484Z,16.37
2022-10-19T19:38:43.942Z,16.52
2022-10-19T19:41:15.539Z,16.74
2022-10-19T19:43:43.769Z,16.60
2022-10-19T19:46:16.773Z,16.46
2022-10-19T19:48:45.892Z,16.42
2022-10-19T19:51:16.270Z,16.30
2022-10-19T19:53:43.209Z,16.19
2022-10-19T19:56:12.032Z,16.18
2022-10-19T19:58:39.461Z,16.10
2022-10-19T20:01:13.632Z,16.05
2022-10-19T20:03:40.984Z,16.01
2022-10-19T20:06:08.482Z,15.95
2022-10-19T20:08:37.011Z,15.87
2022-10-19T20:11:09.453Z,15.81
2022-10-19T20:13:36.805Z,15.65
2022-10-19T20:16:15.196Z,15.55
2022-10-19T20:18:44.894Z,15.51
2022-10-19T20:21:12.628Z,15.40
2022-10-19T20:23:39.539Z,15.33
2022-10-19T20:26:06.705Z,15.27
2022-10-19T20:28:33.521Z,15.23
2022-10-19T20:31:08.566Z,15.20
2022-10-19T20:33:37.503Z,15.16
2022-10-19T20:36:06.585Z,15.14
2022-10-19T20:38:34.504Z,15.08
2022-10-19T20:41:07.942Z,15.02
2022-10-19T20:43:36.682Z,15.00
2022-10-19T20:46:10.418Z,14.99
2022-10-19T20:48:37.243Z,14.90
2022-10-19T20:51:24.906Z,14.85
2022-10-19T20:53:55.731Z,14.86
2022-10-19T20:56:26.136Z,14.82
2022-10-19T20:59:00.358Z,14.82
2022-10-19T21:01:30.116Z,14.82
2022-10-19T21:04:00.926Z,14.82
2022-10-19T21:06:29.688Z,14.80
2022-10-19T21:08:57.145Z,14.75
2022-10-19T21:11:30.130Z,14.67
2022-10-19T21:13:59.492Z,14.70
2022-10-19T21:16:28.496Z,14.65
2022-10-19T21:18:55.929Z,14.59
2022-10-19T21:21:28.937Z,14.53
2022-10-19T21:24:00.030Z,14.59
2022-10-19T21:26:29.594Z,14.57
2022-10-19T21:28:56.628Z,14.56
2022-10-19T21:31:25.582Z,14.52
2022-10-19T21:33:53.025Z,14.51
2022-10-19T21:36:21.739Z,14.50
2022-10-19T21:38:48.843Z,14.49
2022-10-19T21:41:20.860Z,14.58
2022-10-19T21:43:50.870Z,14.54
2022-10-19T21:46:20.502Z,14.60
2022-10-19T21:48:48.119Z,14.60
2022-10-19T21:51:17.687Z,14.72
2022-10-19T21:53:45.398Z,14.73
2022-10-19T21:56:12.702Z,14.77
2022-10-19T21:58:44.773Z,14.80
2022-10-19T22:01:11.625Z,14.84
2022-10-19T22:03:38.503Z,14.86
2022-10-19T22:06:05.820Z,14.87
2022-10-19T22:08:33.092Z,14.91
2022-10-19T22:11:11.609Z,14.90
2022-10-19T22:13:38.772Z,14.93
2022-10-19T22:16:08.116Z,15.01
2022-10-19T22:18:35.019Z,15.03
2022-10-19T22:21:04.523Z,15.04
2022-10-19T22:23:31.551Z,15.05
2022-10-19T22:25:59.017Z,15.05
2022-10-19T22:28:26.452Z,15.08
2022-10-19T22:33:33.867Z,15.08
2022-10-19T22:36:02.367Z,15.14
2022-10-19T22:38:29.322Z,15.13
2022-10-19T22:40:56.123Z,15.13
2022-10-19T22:43:22.972Z,15.10
2022-10-19T22:45:50.314Z,15.06
2022-10-19T22:48:18.112Z,15.04
2022-10-19T22:50:45.165Z,15.05
2022-10-19T22:53:12.234Z,14.99
2022-10-19T22:55:39.314Z,14.97
2022-10-19T22:58:09.100Z,14.93
2022-10-19T23:00:36.294Z,14.86
2022-10-19T23:03:03.298Z,14.86
2022-10-19T23:05:30.457Z,14.89
2022-10-19T23:07:57.264Z,14.82
2022-10-19T23:10:24.358Z,14.78
2022-10-19T23:12:54.536Z,14.64
2022-10-19T23:15:22.089Z,14.60
2022-10-19T23:17:49.051Z,14.54
2022-10-19T23:20:15.961Z,14.54
2022-10-19T23:22:42.911Z,14.50
2022-10-19T23:25:10.664Z,14.48
2022-10-19T23:27:37.706Z,14.48
2022-10-19T23:30:05.186Z,14.43
2022-10-19T23:32:32.182Z,14.33
2022-10-19T23:34:59.048Z,14.39
2022-10-19T23:37:25.899Z,14.29
2022-10-19T23:39:52.745Z,14.32
2022-10-19T23:42:19.549Z,14.31
2022-10-19T23:44:46.354Z,14.28
2022-10-19T23:47:13.557Z,14.25
2022-10-19T23:49:40.404Z,14.13
2022-10-19T23:52:07.404Z,14.06
2022-10-19T23:54:34.306Z,14.11
2022-10-19T23:57:01.202Z,13.92
2022-10-19T23:59:28.206Z,13.89
